Terminal Aerodrome Forecast
Issued by NWS Caribou, ME

Home | Current Version | Previous Version | Text Only | Print | Product List | Glossary On
Versions: 1 2 3 4 5 6 7 8 9 10 11 12 13 14 15 16 17
000
FTUS41 KCAR 271721
TAFCAR
TAF
KCAR 271721Z 2718/2818 29007KT P6SM FEW040 SCT120 BKN200
     FM280000 23005KT P6SM OVC100
     FM280200 VRB05KT P6SM OVC040
     FM280530 15005KT 2SM -SN BR OVC020
     FM280700 15007KT 1SM -SN BR OVC009
     FM281100 18009KT 3SM -RASN BR OVC006
     FM281200 19009KT 6SM -SHRASN OVC009
     FM281400 24011KT P6SM -SHRA OVC015
     FM281600 27013G21KT P6SM VCSH OVC025=

USA.gov is the U.S. government's official web portal to all federal, state and local government web resources and services.